sensor_id;sensor_type;location;lat;lon;timestamp;P1;durP1;ratioP1;P2;durP2;ratioP2
28437;SDS011;15667;52.376;9.708;2023-01-30T00:09:15;44.28;;;17.95;;
28437;SDS011;15667;52.376;9.708;2023-01-30T00:11:44;47.70;;;19.38;;
28437;SDS011;15667;52.376;9.708;2023-01-30T00:14:10;44.28;;;17.92;;
28437;SDS011;15667;52.376;9.708;2023-01-30T00:16:36;48.42;;;17.77;;
28437;SDS011;15667;52.376;9.708;2023-01-30T00:19:02;47.80;;;18.38;;
28437;SDS011;15667;52.376;9.708;2023-01-30T00:21:31;47.05;;;17.80;;
28437;SDS011;15667;52.376;9.708;2023-01-30T00:23:57;47.20;;;18.08;;
28437;SDS011;15667;52.376;9.708;2023-01-30T00:26:25;43.80;;;18.55;;
28437;SDS011;15667;52.376;9.708;2023-01-30T00:28:51;47.17;;;18.05;;
28437;SDS011;15667;52.376;9.708;2023-01-30T00:31:16;48.55;;;17.73;;
28437;SDS011;15667;52.376;9.708;2023-01-30T00:33:42;43.00;;;18.13;;
28437;SDS011;15667;52.376;9.708;2023-01-30T00:36:08;52.97;;;18.92;;
28437;SDS011;15667;52.376;9.708;2023-01-30T00:38:35;41.63;;;17.63;;
28437;SDS011;15667;52.376;9.708;2023-01-30T00:41:00;43.47;;;17.67;;
28437;SDS011;15667;52.376;9.708;2023-01-30T00:43:26;44.35;;;17.77;;
28437;SDS011;15667;52.376;9.708;2023-01-30T00:48:58;49.08;;;18.52;;
28437;SDS011;15667;52.376;9.708;2023-01-30T00:51:24;54.55;;;20.30;;
28437;SDS011;15667;52.376;9.708;2023-01-30T00:53:50;50.38;;;19.13;;
28437;SDS011;15667;52.376;9.708;2023-01-30T00:56:16;51.20;;;19.60;;
28437;SDS011;15667;52.376;9.708;2023-01-30T00:58:42;47.90;;;19.02;;
28437;SDS011;15667;52.376;9.708;2023-01-30T01:01:08;48.22;;;18.73;;
28437;SDS011;15667;52.376;9.708;2023-01-30T01:03:34;51.40;;;19.40;;
28437;SDS011;15667;52.376;9.708;2023-01-30T01:05:59;50.40;;;20.38;;
28437;SDS011;15667;52.376;9.708;2023-01-30T01:08:27;55.03;;;20.23;;
28437;SDS011;15667;52.376;9.708;2023-01-30T01:10:53;52.55;;;20.90;;
28437;SDS011;15667;52.376;9.708;2023-01-30T01:13:19;56.30;;;20.83;;
28437;SDS011;15667;52.376;9.708;2023-01-30T01:15:45;56.55;;;22.17;;
28437;SDS011;15667;52.376;9.708;2023-01-30T01:18:11;59.15;;;21.80;;
28437;SDS011;15667;52.376;9.708;2023-01-30T01:20:39;54.10;;;20.17;;
28437;SDS011;15667;52.376;9.708;2023-01-30T01:23:06;57.85;;;21.33;;
28437;SDS011;15667;52.376;9.708;2023-01-30T01:25:52;57.75;;;22.65;;
28437;SDS011;15667;52.376;9.708;2023-01-30T01:28:18;58.35;;;22.45;;
28437;SDS011;15667;52.376;9.708;2023-01-30T01:30:46;71.03;;;22.25;;
28437;SDS011;15667;52.376;9.708;2023-01-30T01:33:12;61.08;;;21.95;;
28437;SDS011;15667;52.376;9.708;2023-01-30T01:35:40;68.90;;;24.17;;
28437;SDS011;15667;52.376;9.708;2023-01-30T01:38:09;61.90;;;24.23;;
28437;SDS011;15667;52.376;9.708;2023-01-30T01:40:38;66.10;;;24.17;;
28437;SDS011;15667;52.376;9.708;2023-01-30T01:43:23;58.17;;;22.27;;
28437;SDS011;15667;52.376;9.708;2023-01-30T01:46:23;57.45;;;22.20;;
28437;SDS011;15667;52.376;9.708;2023-01-30T01:48:52;52.92;;;21.27;;
28437;SDS011;15667;52.376;9.708;2023-01-30T01:51:29;54.33;;;19.90;;
28437;SDS011;15667;52.376;9.708;2023-01-30T01:54:15;53.22;;;20.20;;
28437;SDS011;15667;52.376;9.708;2023-01-30T01:56:50;51.13;;;19.23;;
28437;SDS011;15667;52.376;9.708;2023-01-30T02:01:47;45.05;;;18.92;;
28437;SDS011;15667;52.376;9.708;2023-01-30T02:04:14;50.85;;;16.48;;
28437;SDS011;15667;52.376;9.708;2023-01-30T02:07:00;48.85;;;18.98;;
28437;SDS011;15667;52.376;9.708;2023-01-30T02:09:27;37.92;;;15.00;;
28437;SDS011;15667;52.376;9.708;2023-01-30T02:11:55;39.28;;;16.08;;
28437;SDS011;15667;52.376;9.708;2023-01-30T02:14:27;50.15;;;18.40;;
28437;SDS011;15667;52.376;9.708;2023-01-30T02:16:59;43.55;;;19.17;;
28437;SDS011;15667;52.376;9.708;2023-01-30T02:33:47;51.25;;;21.10;;
28437;SDS011;15667;52.376;9.708;2023-01-30T02:41:47;51.80;;;20.45;;
28437;SDS011;15667;52.376;9.708;2023-01-30T02:44:44;57.28;;;20.42;;
28437;SDS011;15667;52.376;9.708;2023-01-30T02:47:32;52.22;;;21.35;;
28437;SDS011;15667;52.376;9.708;2023-01-30T02:50:21;51.40;;;20.25;;
28437;SDS011;15667;52.376;9.708;2023-01-30T02:52:48;57.80;;;20.70;;
28437;SDS011;15667;52.376;9.708;2023-01-30T02:55:18;51.17;;;21.23;;
28437;SDS011;15667;52.376;9.708;2023-01-30T02:57:49;38.80;;;16.13;;
28437;SDS011;15667;52.376;9.708;2023-01-30T03:00:27;45.83;;;19.23;;
28437;SDS011;15667;52.376;9.708;2023-01-30T03:03:24;52.28;;;20.17;;
28437;SDS011;15667;52.376;9.708;2023-01-30T03:11:37;50.03;;;20.55;;
28437;SDS011;15667;52.376;9.708;2023-01-30T03:14:29;46.83;;;18.55;;
28437;SDS011;15667;52.376;9.708;2023-01-30T03:17:00;51.88;;;19.60;;
28437;SDS011;15667;52.376;9.708;2023-01-30T03:19:30;55.28;;;20.88;;
28437;SDS011;15667;52.376;9.708;2023-01-30T03:21:56;55.10;;;20.73;;
28437;SDS011;15667;52.376;9.708;2023-01-30T03:24:22;54.60;;;19.67;;
28437;SDS011;15667;52.376;9.708;2023-01-30T03:27:01;49.85;;;19.92;;
28437;SDS011;15667;52.376;9.708;2023-01-30T03:29:32;55.22;;;21.65;;
28437;SDS011;15667;52.376;9.708;2023-01-30T03:31:58;57.38;;;21.90;;
28437;SDS011;15667;52.376;9.708;2023-01-30T03:34:25;59.70;;;22.60;;
28437;SDS011;15667;52.376;9.708;2023-01-30T03:36:51;54.63;;;21.15;;
28437;SDS011;15667;52.376;9.708;2023-01-30T03:39:18;48.88;;;19.38;;
28437;SDS011;15667;52.376;9.708;2023-01-30T03:41:51;59.13;;;22.65;;
28437;SDS011;15667;52.376;9.708;2023-01-30T03:44:17;53.92;;;19.83;;
28437;SDS011;15667;52.376;9.708;2023-01-30T03:46:43;55.85;;;20.67;;
28437;SDS011;15667;52.376;9.708;2023-01-30T03:49:24;60.70;;;23.17;;
28437;SDS011;15667;52.376;9.708;2023-01-30T03:51:51;54.13;;;20.10;;
28437;SDS011;15667;52.376;9.708;2023-01-30T03:54:17;50.88;;;20.23;;
28437;SDS011;15667;52.376;9.708;2023-01-30T03:56:42;58.15;;;22.15;;
28437;SDS011;15667;52.376;9.708;2023-01-30T03:59:08;48.28;;;18.65;;
28437;SDS011;15667;52.376;9.708;2023-01-30T04:01:34;54.20;;;21.38;;
28437;SDS011;15667;52.376;9.708;2023-01-30T04:04:00;55.35;;;21.52;;
28437;SDS011;15667;52.376;9.708;2023-01-30T04:06:25;53.00;;;19.75;;
28437;SDS011;15667;52.376;9.708;2023-01-30T04:08:52;49.47;;;19.27;;
28437;SDS011;15667;52.376;9.708;2023-01-30T04:11:17;48.45;;;19.58;;
28437;SDS011;15667;52.376;9.708;2023-01-30T04:13:43;53.70;;;20.38;;
28437;SDS011;15667;52.376;9.708;2023-01-30T04:16:20;50.40;;;19.88;;
28437;SDS011;15667;52.376;9.708;2023-01-30T04:18:47;51.42;;;17.83;;
28437;SDS011;15667;52.376;9.708;2023-01-30T04:21:14;41.90;;;14.90;;
28437;SDS011;15667;52.376;9.708;2023-01-30T04:23:44;50.10;;;20.00;;
28437;SDS011;15667;52.376;9.708;2023-01-30T04:26:12;54.72;;;19.50;;
28437;SDS011;15667;52.376;9.708;2023-01-30T04:28:38;48.00;;;19.02;;
28437;SDS011;15667;52.376;9.708;2023-01-30T04:31:05;46.70;;;17.08;;
28437;SDS011;15667;52.376;9.708;2023-01-30T04:33:37;50.65;;;18.63;;
28437;SDS011;15667;52.376;9.708;2023-01-30T04:36:07;39.90;;;16.55;;
28437;SDS011;15667;52.376;9.708;2023-01-30T04:38:37;39.55;;;15.18;;
28437;SDS011;15667;52.376;9.708;2023-01-30T04:41:03;41.75;;;16.60;;
28437;SDS011;15667;52.376;9.708;2023-01-30T04:43:31;42.30;;;16.75;;
28437;SDS011;15667;52.376;9.708;2023-01-30T04:45:57;41.45;;;16.38;;
28437;SDS011;15667;52.376;9.708;2023-01-30T04:48:23;38.67;;;15.27;;
28437;SDS011;15667;52.376;9.708;2023-01-30T04:50:50;36.42;;;14.43;;
28437;SDS011;15667;52.376;9.708;2023-01-30T04:53:17;38.47;;;15.05;;
28437;SDS011;15667;52.376;9.708;2023-01-30T04:55:44;34.83;;;15.77;;
28437;SDS011;15667;52.376;9.708;2023-01-30T04:58:10;34.70;;;13.68;;
28437;SDS011;15667;52.376;9.708;2023-01-30T05:04:00;33.92;;;13.20;;
28437;SDS011;15667;52.376;9.708;2023-01-30T05:07:49;34.25;;;13.35;;
28437;SDS011;15667;52.376;9.708;2023-01-30T05:10:16;35.83;;;13.60;;
28437;SDS011;15667;52.376;9.708;2023-01-30T05:15:49;34.30;;;12.18;;
28437;SDS011;15667;52.376;9.708;2023-01-30T05:18:15;29.60;;;12.93;;
28437;SDS011;15667;52.376;9.708;2023-01-30T05:20:41;26.30;;;11.55;;
28437;SDS011;15667;52.376;9.708;2023-01-30T05:23:07;26.02;;;10.68;;
28437;SDS011;15667;52.376;9.708;2023-01-30T05:25:32;25.38;;;11.75;;
28437;SDS011;15667;52.376;9.708;2023-01-30T05:27:58;25.70;;;10.98;;
28437;SDS011;15667;52.376;9.708;2023-01-30T05:30:24;25.38;;;10.57;;
28437;SDS011;15667;52.376;9.708;2023-01-30T05:36:48;26.23;;;10.85;;
28437;SDS011;15667;52.376;9.708;2023-01-30T06:05:53;27.63;;;11.90;;
28437;SDS011;15667;52.376;9.708;2023-01-30T06:08:19;25.60;;;11.00;;
28437;SDS011;15667;52.376;9.708;2023-01-30T06:10:45;22.13;;;9.23;;
28437;SDS011;15667;52.376;9.708;2023-01-30T06:13:10;29.40;;;11.77;;
28437;SDS011;15667;52.376;9.708;2023-01-30T06:15:36;19.98;;;8.88;;
28437;SDS011;15667;52.376;9.708;2023-01-30T06:18:02;21.88;;;8.77;;
28437;SDS011;15667;52.376;9.708;2023-01-30T06:20:28;20.23;;;8.95;;
28437;SDS011;15667;52.376;9.708;2023-01-30T06:22:53;25.65;;;9.20;;
28437;SDS011;15667;52.376;9.708;2023-01-30T06:25:19;23.25;;;9.48;;
28437;SDS011;15667;52.376;9.708;2023-01-30T06:27:45;23.30;;;9.15;;
28437;SDS011;15667;52.376;9.708;2023-01-30T06:30:11;21.73;;;8.85;;
28437;SDS011;15667;52.376;9.708;2023-01-30T06:32:37;20.60;;;8.30;;
28437;SDS011;15667;52.376;9.708;2023-01-30T06:35:02;25.02;;;10.25;;
28437;SDS011;15667;52.376;9.708;2023-01-30T06:37:28;29.85;;;10.70;;
28437;SDS011;15667;52.376;9.708;2023-01-30T06:39:54;29.23;;;11.52;;
28437;SDS011;15667;52.376;9.708;2023-01-30T06:42:19;34.53;;;11.18;;
28437;SDS011;15667;52.376;9.708;2023-01-30T06:44:45;30.45;;;11.73;;
28437;SDS011;15667;52.376;9.708;2023-01-30T06:47:10;29.55;;;12.63;;
28437;SDS011;15667;52.376;9.708;2023-01-30T06:49:36;32.03;;;10.45;;
28437;SDS011;15667;52.376;9.708;2023-01-30T06:52:02;23.73;;;11.10;;
28437;SDS011;15667;52.376;9.708;2023-01-30T06:54:27;26.40;;;9.80;;
28437;SDS011;15667;52.376;9.708;2023-01-30T06:56:53;27.77;;;10.02;;
28437;SDS011;15667;52.376;9.708;2023-01-30T06:59:19;27.73;;;8.95;;
28437;SDS011;15667;52.376;9.708;2023-01-30T07:01:44;30.08;;;9.15;;
28437;SDS011;15667;52.376;9.708;2023-01-30T07:04:10;30.05;;;8.38;;
28437;SDS011;15667;52.376;9.708;2023-01-30T07:06:36;27.65;;;8.35;;
28437;SDS011;15667;52.376;9.708;2023-01-30T07:09:02;27.55;;;8.10;;
28437;SDS011;15667;52.376;9.708;2023-01-30T07:11:28;33.50;;;7.53;;
28437;SDS011;15667;52.376;9.708;2023-01-30T07:13:55;30.40;;;7.90;;
28437;SDS011;15667;52.376;9.708;2023-01-30T07:16:20;23.48;;;7.47;;
28437;SDS011;15667;52.376;9.708;2023-01-30T07:18:53;20.90;;;7.05;;
28437;SDS011;15667;52.376;9.708;2023-01-30T07:21:23;22.83;;;6.00;;
28437;SDS011;15667;52.376;9.708;2023-01-30T07:23:49;16.33;;;5.35;;
28437;SDS011;15667;52.376;9.708;2023-01-30T07:26:15;23.65;;;4.55;;
28437;SDS011;15667;52.376;9.708;2023-01-30T07:28:40;27.70;;;4.75;;
28437;SDS011;15667;52.376;9.708;2023-01-30T07:31:06;19.13;;;4.15;;
28437;SDS011;15667;52.376;9.708;2023-01-30T07:33:31;18.55;;;4.10;;
28437;SDS011;15667;52.376;9.708;2023-01-30T07:35:57;30.05;;;4.30;;
28437;SDS011;15667;52.376;9.708;2023-01-30T07:38:23;21.98;;;4.03;;
28437;SDS011;15667;52.376;9.708;2023-01-30T07:40:48;22.30;;;4.18;;
28437;SDS011;15667;52.376;9.708;2023-01-30T07:43:14;19.90;;;5.00;;
28437;SDS011;15667;52.376;9.708;2023-01-30T07:45:40;27.25;;;4.20;;
28437;SDS011;15667;52.376;9.708;2023-01-30T07:48:11;21.67;;;3.97;;
28437;SDS011;15667;52.376;9.708;2023-01-30T07:50:42;14.30;;;3.75;;
28437;SDS011;15667;52.376;9.708;2023-01-30T07:53:09;18.73;;;3.60;;
28437;SDS011;15667;52.376;9.708;2023-01-30T07:55:37;16.75;;;3.80;;
28437;SDS011;15667;52.376;9.708;2023-01-30T07:58:03;20.00;;;3.38;;
28437;SDS011;15667;52.376;9.708;2023-01-30T08:00:28;26.73;;;3.30;;
28437;SDS011;15667;52.376;9.708;2023-01-30T08:02:55;18.15;;;3.08;;
28437;SDS011;15667;52.376;9.708;2023-01-30T08:05:20;14.30;;;2.95;;
28437;SDS011;15667;52.376;9.708;2023-01-30T08:07:46;17.25;;;3.28;;
28437;SDS011;15667;52.376;9.708;2023-01-30T08:10:12;24.45;;;3.13;;
28437;SDS011;15667;52.376;9.708;2023-01-30T08:12:38;25.60;;;2.92;;
28437;SDS011;15667;52.376;9.708;2023-01-30T08:15:05;15.82;;;2.55;;
28437;SDS011;15667;52.376;9.708;2023-01-30T08:17:31;17.63;;;3.72;;
28437;SDS011;15667;52.376;9.708;2023-01-30T08:20:01;11.90;;;2.97;;
28437;SDS011;15667;52.376;9.708;2023-01-30T08:22:28;29.48;;;3.40;;
28437;SDS011;15667;52.376;9.708;2023-01-30T08:24:53;24.67;;;3.53;;
28437;SDS011;15667;52.376;9.708;2023-01-30T08:27:19;22.27;;;3.30;;
28437;SDS011;15667;52.376;9.708;2023-01-30T08:29:45;26.40;;;4.15;;
28437;SDS011;15667;52.376;9.708;2023-01-30T08:32:10;16.83;;;2.50;;
28437;SDS011;15667;52.376;9.708;2023-01-30T08:34:36;21.80;;;3.65;;
28437;SDS011;15667;52.376;9.708;2023-01-30T08:37:02;21.70;;;2.95;;
28437;SDS011;15667;52.376;9.708;2023-01-30T08:39:28;19.27;;;2.60;;
28437;SDS011;15667;52.376;9.708;2023-01-30T08:41:54;10.20;;;2.20;;
28437;SDS011;15667;52.376;9.708;2023-01-30T08:44:19;6.22;;;2.35;;
28437;SDS011;15667;52.376;9.708;2023-01-30T08:46:45;14.55;;;2.58;;
28437;SDS011;15667;52.376;9.708;2023-01-30T08:49:11;15.48;;;3.33;;
28437;SDS011;15667;52.376;9.708;2023-01-30T08:51:40;23.95;;;2.88;;
28437;SDS011;15667;52.376;9.708;2023-01-30T08:54:05;11.82;;;2.92;;
28437;SDS011;15667;52.376;9.708;2023-01-30T08:56:32;17.45;;;2.83;;
28437;SDS011;15667;52.376;9.708;2023-01-30T08:59:03;18.00;;;2.80;;
28437;SDS011;15667;52.376;9.708;2023-01-30T09:01:32;13.77;;;2.38;;
28437;SDS011;15667;52.376;9.708;2023-01-30T09:03:58;22.48;;;3.20;;
28437;SDS011;15667;52.376;9.708;2023-01-30T09:06:24;17.15;;;2.60;;
28437;SDS011;15667;52.376;9.708;2023-01-30T09:08:50;20.15;;;2.63;;
28437;SDS011;15667;52.376;9.708;2023-01-30T09:11:16;18.38;;;2.20;;
28437;SDS011;15667;52.376;9.708;2023-01-30T09:13:41;11.95;;;2.33;;
28437;SDS011;15667;52.376;9.708;2023-01-30T09:16:09;19.20;;;2.63;;
28437;SDS011;15667;52.376;9.708;2023-01-30T09:18:38;36.50;;;3.90;;
28437;SDS011;15667;52.376;9.708;2023-01-30T09:21:05;21.33;;;2.85;;
28437;SDS011;15667;52.376;9.708;2023-01-30T09:23:32;18.30;;;2.60;;
28437;SDS011;15667;52.376;9.708;2023-01-30T09:25:57;20.92;;;3.10;;
28437;SDS011;15667;52.376;9.708;2023-01-30T09:28:24;18.65;;;3.05;;
28437;SDS011;15667;52.376;9.708;2023-01-30T09:30:50;22.58;;;2.50;;
28437;SDS011;15667;52.376;9.708;2023-01-30T09:33:15;16.42;;;2.33;;
28437;SDS011;15667;52.376;9.708;2023-01-30T09:35:47;22.83;;;3.03;;
28437;SDS011;15667;52.376;9.708;2023-01-30T09:38:13;26.67;;;2.75;;
28437;SDS011;15667;52.376;9.708;2023-01-30T09:40:42;16.92;;;2.78;;
28437;SDS011;15667;52.376;9.708;2023-01-30T09:49:08;15.85;;;2.67;;
28437;SDS011;15667;52.376;9.708;2023-01-30T09:56:45;20.88;;;2.70;;
28437;SDS011;15667;52.376;9.708;2023-01-30T09:59:18;13.13;;;1.95;;
28437;SDS011;15667;52.376;9.708;2023-01-30T10:04:35;16.42;;;2.58;;
28437;SDS011;15667;52.376;9.708;2023-01-30T10:12:43;16.50;;;2.65;;
28437;SDS011;15667;52.376;9.708;2023-01-30T10:15:22;20.92;;;2.53;;
28437;SDS011;15667;52.376;9.708;2023-01-30T10:21:01;21.85;;;3.67;;
28437;SDS011;15667;52.376;9.708;2023-01-30T10:23:48;17.60;;;3.10;;
28437;SDS011;15667;52.376;9.708;2023-01-30T10:26:25;23.00;;;3.75;;
28437;SDS011;15667;52.376;9.708;2023-01-30T10:31:47;15.43;;;2.50;;
28437;SDS011;15667;52.376;9.708;2023-01-30T10:34:35;20.52;;;2.40;;
28437;SDS011;15667;52.376;9.708;2023-01-30T10:37:05;19.67;;;2.55;;
28437;SDS011;15667;52.376;9.708;2023-01-30T10:39:40;9.57;;;1.67;;
28437;SDS011;15667;52.376;9.708;2023-01-30T10:42:57;19.30;;;3.17;;
28437;SDS011;15667;52.376;9.708;2023-01-30T10:45:25;15.93;;;2.45;;
28437;SDS011;15667;52.376;9.708;2023-01-30T10:51:21;21.92;;;3.17;;
28437;SDS011;15667;52.376;9.708;2023-01-30T10:53:57;21.50;;;2.88;;
28437;SDS011;15667;52.376;9.708;2023-01-30T10:56:35;17.30;;;3.42;;
28437;SDS011;15667;52.376;9.708;2023-01-30T11:02:11;21.73;;;3.10;;
28437;SDS011;15667;52.376;9.708;2023-01-30T11:04:59;15.18;;;2.50;;
28437;SDS011;15667;52.376;9.708;2023-01-30T11:07:29;21.45;;;2.95;;
28437;SDS011;15667;52.376;9.708;2023-01-30T11:09:56;18.38;;;3.00;;
28437;SDS011;15667;52.376;9.708;2023-01-30T11:12:23;18.10;;;3.03;;
28437;SDS011;15667;52.376;9.708;2023-01-30T11:14:50;26.38;;;3.10;;
28437;SDS011;15667;52.376;9.708;2023-01-30T11:17:18;19.48;;;3.03;;
28437;SDS011;15667;52.376;9.708;2023-01-30T11:19:52;18.38;;;3.35;;
28437;SDS011;15667;52.376;9.708;2023-01-30T11:22:20;19.65;;;3.30;;
28437;SDS011;15667;52.376;9.708;2023-01-30T11:24:45;20.38;;;3.15;;
28437;SDS011;15667;52.376;9.708;2023-01-30T11:27:16;29.08;;;3.53;;
28437;SDS011;15667;52.376;9.708;2023-01-30T11:29:48;26.52;;;3.03;;
28437;SDS011;15667;52.376;9.708;2023-01-30T11:32:26;19.20;;;3.38;;
28437;SDS011;15667;52.376;9.708;2023-01-30T11:37:31;18.67;;;3.20;;
28437;SDS011;15667;52.376;9.708;2023-01-30T11:39:58;12.05;;;2.35;;
28437;SDS011;15667;52.376;9.708;2023-01-30T11:42:31;23.02;;;3.10;;
28437;SDS011;15667;52.376;9.708;2023-01-30T11:44:58;19.25;;;3.10;;
28437;SDS011;15667;52.376;9.708;2023-01-30T11:47:25;13.68;;;2.95;;
28437;SDS011;15667;52.376;9.708;2023-01-30T11:49:53;28.60;;;3.85;;
28437;SDS011;15667;52.376;9.708;2023-01-30T11:52:27;25.73;;;3.65;;
28437;SDS011;15667;52.376;9.708;2023-01-30T11:54:58;27.77;;;4.25;;
28437;SDS011;15667;52.376;9.708;2023-01-30T11:57:29;27.13;;;4.28;;
28437;SDS011;15667;52.376;9.708;2023-01-30T12:00:05;15.90;;;2.70;;
28437;SDS011;15667;52.376;9.708;2023-01-30T12:02:41;15.73;;;2.67;;
28437;SDS011;15667;52.376;9.708;2023-01-30T12:05:30;15.43;;;2.20;;
28437;SDS011;15667;52.376;9.708;2023-01-30T12:08:11;18.30;;;3.30;;
28437;SDS011;15667;52.376;9.708;2023-01-30T12:10:42;21.15;;;3.30;;
28437;SDS011;15667;52.376;9.708;2023-01-30T12:13:35;21.45;;;3.10;;
28437;SDS011;15667;52.376;9.708;2023-01-30T12:19:09;11.93;;;2.20;;
28437;SDS011;15667;52.376;9.708;2023-01-30T12:22:02;26.00;;;3.25;;
28437;SDS011;15667;52.376;9.708;2023-01-30T12:24:45;23.50;;;3.10;;
28437;SDS011;15667;52.376;9.708;2023-01-30T12:27:42;24.00;;;2.70;;
28437;SDS011;15667;52.376;9.708;2023-01-30T12:30:22;21.17;;;3.28;;
28437;SDS011;15667;52.376;9.708;2023-01-30T12:33:02;19.58;;;2.40;;
28437;SDS011;15667;52.376;9.708;2023-01-30T12:35:54;28.15;;;2.97;;
28437;SDS011;15667;52.376;9.708;2023-01-30T12:41:34;20.35;;;2.42;;
28437;SDS011;15667;52.376;9.708;2023-01-30T12:44:30;17.23;;;2.30;;
28437;SDS011;15667;52.376;9.708;2023-01-30T12:50:27;16.52;;;2.30;;
28437;SDS011;15667;52.376;9.708;2023-01-30T12:55:50;21.25;;;2.30;;
28437;SDS011;15667;52.376;9.708;2023-01-30T13:04:04;12.88;;;2.17;;
28437;SDS011;15667;52.376;9.708;2023-01-30T13:09:54;5.93;;;1.67;;
28437;SDS011;15667;52.376;9.708;2023-01-30T13:18:41;15.13;;;2.17;;
28437;SDS011;15667;52.376;9.708;2023-01-30T13:21:30;14.02;;;3.00;;
28437;SDS011;15667;52.376;9.708;2023-01-30T13:26:42;21.92;;;3.83;;
28437;SDS011;15667;52.376;9.708;2023-01-30T13:31:54;23.25;;;3.38;;
28437;SDS011;15667;52.376;9.708;2023-01-30T13:40:35;15.43;;;2.70;;
28437;SDS011;15667;52.376;9.708;2023-01-30T13:43:11;18.08;;;2.75;;
28437;SDS011;15667;52.376;9.708;2023-01-30T13:45:41;18.90;;;2.60;;
28437;SDS011;15667;52.376;9.708;2023-01-30T13:48:17;20.13;;;2.60;;
28437;SDS011;15667;52.376;9.708;2023-01-30T14:02:38;14.63;;;2.20;;
28437;SDS011;15667;52.376;9.708;2023-01-30T14:04:43;10.93;;;1.88;;
28437;SDS011;15667;52.376;9.708;2023-01-30T14:07:14;20.08;;;2.65;;
28437;SDS011;15667;52.376;9.708;2023-01-30T14:12:41;13.68;;;1.55;;
28437;SDS011;15667;52.376;9.708;2023-01-30T14:20:29;12.52;;;1.55;;
28437;SDS011;15667;52.376;9.708;2023-01-30T14:23:00;12.88;;;2.00;;
28437;SDS011;15667;52.376;9.708;2023-01-30T14:35:48;12.95;;;2.03;;
28437;SDS011;15667;52.376;9.708;2023-01-30T14:38:37;21.55;;;2.20;;
28437;SDS011;15667;52.376;9.708;2023-01-30T14:54:37;14.63;;;2.40;;
28437;SDS011;15667;52.376;9.708;2023-01-30T14:57:21;14.18;;;3.72;;
28437;SDS011;15667;52.376;9.708;2023-01-30T14:59:55;14.18;;;2.30;;
28437;SDS011;15667;52.376;9.708;2023-01-30T15:02:36;19.75;;;3.25;;
28437;SDS011;15667;52.376;9.708;2023-01-30T15:05:16;26.08;;;2.67;;
28437;SDS011;15667;52.376;9.708;2023-01-30T15:08:01;21.00;;;2.20;;
28437;SDS011;15667;52.376;9.708;2023-01-30T15:16:01;17.63;;;2.72;;
28437;SDS011;15667;52.376;9.708;2023-01-30T15:32:28;13.15;;;2.70;;
28437;SDS011;15667;52.376;9.708;2023-01-30T15:34:56;18.20;;;2.97;;
28437;SDS011;15667;52.376;9.708;2023-01-30T15:37:34;18.25;;;2.22;;
28437;SDS011;15667;52.376;9.708;2023-01-30T15:43:17;28.15;;;3.22;;
28437;SDS011;15667;52.376;9.708;2023-01-30T15:46:20;22.75;;;2.58;;
28437;SDS011;15667;52.376;9.708;2023-01-30T15:49:04;24.33;;;2.80;;
28437;SDS011;15667;52.376;9.708;2023-01-30T15:51:32;32.25;;;3.53;;
28437;SDS011;15667;52.376;9.708;2023-01-30T15:53:58;18.10;;;2.63;;
28437;SDS011;15667;52.376;9.708;2023-01-30T15:56:28;19.27;;;2.60;;
28437;SDS011;15667;52.376;9.708;2023-01-30T15:58:59;20.10;;;3.03;;
28437;SDS011;15667;52.376;9.708;2023-01-30T16:01:26;21.48;;;2.47;;
28437;SDS011;15667;52.376;9.708;2023-01-30T16:03:52;19.35;;;3.35;;
28437;SDS011;15667;52.376;9.708;2023-01-30T16:06:28;23.20;;;3.05;;
28437;SDS011;15667;52.376;9.708;2023-01-30T16:11:32;22.75;;;2.58;;
28437;SDS011;15667;52.376;9.708;2023-01-30T16:14:00;24.75;;;3.17;;
28437;SDS011;15667;52.376;9.708;2023-01-30T16:16:26;20.42;;;3.40;;
28437;SDS011;15667;52.376;9.708;2023-01-30T16:18:59;21.95;;;3.20;;
28437;SDS011;15667;52.376;9.708;2023-01-30T16:21:31;19.98;;;2.50;;
28437;SDS011;15667;52.376;9.708;2023-01-30T16:24:01;17.05;;;3.00;;
28437;SDS011;15667;52.376;9.708;2023-01-30T16:26:30;27.73;;;4.20;;
28437;SDS011;15667;52.376;9.708;2023-01-30T16:28:59;19.52;;;3.90;;
28437;SDS011;15667;52.376;9.708;2023-01-30T16:31:31;22.13;;;2.78;;
28437;SDS011;15667;52.376;9.708;2023-01-30T16:33:58;25.38;;;3.42;;
28437;SDS011;15667;52.376;9.708;2023-01-30T16:38:52;21.48;;;2.75;;
28437;SDS011;15667;52.376;9.708;2023-01-30T16:41:31;27.35;;;3.30;;
28437;SDS011;15667;52.376;9.708;2023-01-30T16:44:22;28.35;;;3.78;;
28437;SDS011;15667;52.376;9.708;2023-01-30T16:47:05;25.35;;;2.78;;
28437;SDS011;15667;52.376;9.708;2023-01-30T16:49:52;24.42;;;3.10;;
28437;SDS011;15667;52.376;9.708;2023-01-30T16:52:33;29.35;;;3.38;;
28437;SDS011;15667;52.376;9.708;2023-01-30T16:55:05;23.15;;;2.45;;
28437;SDS011;15667;52.376;9.708;2023-01-30T16:57:42;28.50;;;2.97;;
28437;SDS011;15667;52.376;9.708;2023-01-30T17:02:53;28.88;;;3.40;;
28437;SDS011;15667;52.376;9.708;2023-01-30T17:05:24;24.55;;;3.30;;
28437;SDS011;15667;52.376;9.708;2023-01-30T17:07:52;23.60;;;3.03;;
28437;SDS011;15667;52.376;9.708;2023-01-30T17:12:58;17.30;;;2.60;;
28437;SDS011;15667;52.376;9.708;2023-01-30T17:15:42;22.58;;;3.00;;
28437;SDS011;15667;52.376;9.708;2023-01-30T17:18:08;22.58;;;3.35;;
28437;SDS011;15667;52.376;9.708;2023-01-30T17:20:35;17.88;;;2.50;;
28437;SDS011;15667;52.376;9.708;2023-01-30T17:23:06;31.45;;;3.30;;
28437;SDS011;15667;52.376;9.708;2023-01-30T17:25:39;19.85;;;2.90;;
28437;SDS011;15667;52.376;9.708;2023-01-30T17:28:07;27.23;;;3.17;;
28437;SDS011;15667;52.376;9.708;2023-01-30T17:30:34;32.40;;;3.83;;
28437;SDS011;15667;52.376;9.708;2023-01-30T17:32:59;22.73;;;3.40;;
28437;SDS011;15667;52.376;9.708;2023-01-30T17:35:25;25.42;;;3.75;;
28437;SDS011;15667;52.376;9.708;2023-01-30T17:37:51;25.05;;;3.92;;
28437;SDS011;15667;52.376;9.708;2023-01-30T17:40:18;24.65;;;3.58;;
28437;SDS011;15667;52.376;9.708;2023-01-30T17:42:56;25.98;;;4.47;;
28437;SDS011;15667;52.376;9.708;2023-01-30T17:45:22;25.50;;;3.05;;
28437;SDS011;15667;52.376;9.708;2023-01-30T17:47:48;27.17;;;4.15;;
28437;SDS011;15667;52.376;9.708;2023-01-30T17:50:13;18.05;;;2.70;;
28437;SDS011;15667;52.376;9.708;2023-01-30T17:52:39;24.27;;;2.92;;
28437;SDS011;15667;52.376;9.708;2023-01-30T17:55:06;22.38;;;2.65;;
28437;SDS011;15667;52.376;9.708;2023-01-30T17:57:42;14.05;;;1.95;;
28437;SDS011;15667;52.376;9.708;2023-01-30T18:00:14;13.05;;;2.35;;
28437;SDS011;15667;52.376;9.708;2023-01-30T18:02:41;20.90;;;3.30;;
28437;SDS011;15667;52.376;9.708;2023-01-30T18:05:07;18.40;;;2.85;;
28437;SDS011;15667;52.376;9.708;2023-01-30T18:07:33;10.57;;;2.47;;
28437;SDS011;15667;52.376;9.708;2023-01-30T18:09:59;21.88;;;3.22;;
28437;SDS011;15667;52.376;9.708;2023-01-30T18:12:24;18.58;;;3.25;;
28437;SDS011;15667;52.376;9.708;2023-01-30T18:14:50;21.38;;;2.95;;
28437;SDS011;15667;52.376;9.708;2023-01-30T18:17:16;29.95;;;3.08;;
28437;SDS011;15667;52.376;9.708;2023-01-30T18:19:42;19.70;;;3.28;;
28437;SDS011;15667;52.376;9.708;2023-01-30T18:22:07;18.42;;;2.40;;
28437;SDS011;15667;52.376;9.708;2023-01-30T18:24:33;16.67;;;2.47;;
28437;SDS011;15667;52.376;9.708;2023-01-30T18:26:58;6.90;;;2.33;;
28437;SDS011;15667;52.376;9.708;2023-01-30T18:29:24;18.45;;;2.65;;
28437;SDS011;15667;52.376;9.708;2023-01-30T18:31:50;15.20;;;2.83;;
28437;SDS011;15667;52.376;9.708;2023-01-30T18:34:15;30.23;;;3.38;;
28437;SDS011;15667;52.376;9.708;2023-01-30T18:36:41;23.33;;;3.33;;